หน้าหลัก
METAR-TAF:

METAR-TAF

ท่าอากาศยาน :

Sandefjord, นอร์เวย์

ละติจูด: 59-12N, ลองจิจูด: 010-16E, ความสูง: 8 ม.

การสังเกตสภาพอากาศปัจจุบัน

รายงานได้ทำขึ้นเมื่อ 39 นาทีที่แล้ว ณ เวลา 17:50 UTC
ลม 5 นอตจากใต้/ตะวันตกเฉียงใต้
อุณหภูมิ 23°C
ความชื้น 50%
ความกดอากาศ 1013 hPa
ทัศนวิสัย 10 กม. หรือมากกว่า
ไม่มีเมฆต่ำกว่า 1,500 ม. และไม่มีเมฆคิวมูโลนิมบัส

METAR: ENTO 201750Z 21005KT CAVOK 23/12 Q1013 NOSIG

เวลา: 20:29 (18:29 UTC)

การพยากรณ์

รายงานได้ทำขึ้นเมื่อ 1 ชั่วโมงและ 29 นาทีที่แล้ว ณ เวลา 17:00 UTC
การพยากรณ์มีผลตั้งแต่วันที่ 20 ณ เวลา 18 UTC จนถึงวันที่ 21 ณ เวลา 18 UTC
ลม 5 นอตจากตะวันตกเฉียงใต้
ทัศนวิสัย 10 กม. หรือมากกว่า
ไม่มีเมฆต่ำกว่า 1,500 ม. และไม่มีเมฆคิวมูโลนิมบัส
ชั่วคราว
ตั้งแต่วันที่ 21 ณ เวลา 15 UTC จนถึงวันที่ 21 ณ เวลา 18 UTC
มีเมฆน้อยที่ความสูง 4000 ฟุต, คิวมูโลนิมบัส.

TAF: ENTO 201700Z 2018/2118 22005KT CAVOK TEMPO 2115/2118 FEW040CB

สังเกตการณ์สภาพอากาศและพยากรณ์อากาศของสนามบินมากกว่า 4000 แห่ง (รายงาน METAR และ TAF).

สถานีที่ดูได้จะแสดงไว้ด้วยจุดสีเหลืองและสีแดงบนแผนที่.

เลื่อนเมาส์ไปเหนือจุดเพื่อดูชื่อสถานี.

แล้วคลิกเพื่อดูสังเกตการณ์และการพยากรณ์สภาพอากาศ.

ในการเปลี่ยนแผนที่: คลิกที่ปุ่มสีเขียวที่มีกากบาทสีดำเพื่อซูมเข้า; ที่ปุ่มสีเขียวที่มีขีดเพื่อซูมออก; หรือที่ลูกศรสีเขียวเพื่อไปยังแผนที่ที่อยู่ติดกัน.


METAR-TAF: